Nearby METAR Reports

KLWM - Lawrence,MA, USA
Distance from station: NE 12mi, 19km
Updated: Tue, 10-Dec-2019 2:06am EST
Overcast
Overcast
 Wind from SSW
Wind: SSW 12 mph , 19 km/h
Temperature: 54°F , 12°C
Dew Point: 52°F , 11°C
Humidity: 94%
Barometer: 29.67 inHg , 1004.7 hPa
Clouds: Overcast
Visibility: 10 miles , 16 km
Cloud details: Mostly Cloudy 2300 ft
Mostly Cloudy 6500 ft
Overcast 10000 ft
2019/12/10 07:06 KLWM 100706Z AUTO 21010KT 10SM BKN023 BKN065 OVC100 12/11 A2967 RMK AO2 RAE05 P0000 T01170106
KBED - Bedford,MA, USA
Distance from station: SSE 12mi, 19km
Updated: Tue, 10-Dec-2019 1:51am EST
Light rain, Overcast
Light rain, Overcast
 Wind from SSW
Wind: SSW 12 mph , 19 km/h
Temperature: 55°F , 13°C
Dew Point: 52°F , 11°C
Humidity: 88%
Barometer: 29.66 inHg , 1004.4 hPa
Summary: Light Rain
Clouds: Overcast
Visibility: 10 miles , 16 km
Cloud details: Overcast 1600 ft
2019/12/10 06:51 KBED 100651Z AUTO 21010KT 10SM -RA OVC016 13/11 A2966 RMK AO2 RAE05B37 SLP057 P0000 T01280106

Metar display script from Saratoga-Weather.org